Time;durP1;ratioP1;P1;durP2;ratioP2;P2;SDS_P1;SDS_P2;PMS_P1;PMS_P2;Temp;Humidity;BMP_temperature;BMP_pressure;BME280_temperature;BME280_humidity;BME280_pressure;Samples;Min_cycle;Max_cycle;Signal;HPM_P1;HPM_P2
2024/02/26 00:02:14;;;;;;;104.30;45.90;;;;;;;2.68;100.00;99549.29;214742;1286;141325;-87
2024/02/26 00:07:14;;;;;;;87.40;42.40;;;;;;;2.63;100.00;99553.19;214173;1285;140704;-87
2024/02/26 00:12:15;;;;;;;100.50;45.30;;;;;;;2.56;100.00;99549.51;214649;1287;97944;-86
2024/02/26 00:17:16;;;;;;;97.10;44.40;;;;;;;2.52;100.00;99551.25;214283;1287;140387;-87
2024/02/26 00:22:16;;;;;;;87.50;40.70;;;;;;;2.45;100.00;99554.92;214802;1285;138986;-87
2024/02/26 00:27:16;;;;;;;99.90;43.90;;;;;;;2.40;100.00;99555.41;214290;1285;140549;-87
2024/02/26 00:32:17;;;;;;;78.20;38.10;;;;;;;2.33;100.00;99558.83;214816;1286;140101;-87
2024/02/26 00:37:18;;;;;;;76.20;37.30;;;;;;;2.15;100.00;99554.73;214396;1285;140485;-86
2024/02/26 00:42:19;;;;;;;83.80;40.10;;;;;;;2.07;100.00;99553.56;216684;1286;97901;-87
2024/02/26 00:47:19;;;;;;;74.40;37.00;;;;;;;2.07;100.00;99545.64;214079;1290;140454;-87
2024/02/26 00:52:20;;;;;;;72.10;37.80;;;;;;;1.97;100.00;99547.05;214581;1290;139656;-87
2024/02/26 00:57:20;;;;;;;71.30;35.40;;;;;;;1.92;100.00;99550.85;214788;1290;140607;-87
2024/02/26 01:02:20;;;;;;;69.20;35.30;;;;;;;1.90;100.00;99553.66;215330;1288;139388;-87
2024/02/26 01:07:21;;;;;;;72.50;37.00;;;;;;;1.89;100.00;99547.95;215566;1285;140149;-88
2024/02/26 01:12:21;;;;;;;64.40;35.90;;;;;;;1.90;100.00;99548.91;215857;1284;97506;-87
2024/02/26 01:17:21;;;;;;;67.00;35.20;;;;;;;1.90;100.00;99549.48;215257;1286;140130;-88
2024/02/26 01:22:22;;;;;;;70.90;36.00;;;;;;;1.92;100.00;99545.57;215751;1288;139664;-87
2024/02/26 01:27:26;;;;;;;74.70;39.40;;;;;;;1.92;100.00;99541.40;215223;1285;140279;-88
2024/02/26 01:32:26;;;;;;;66.30;38.00;;;;;;;1.94;100.00;99543.17;215722;1286;139606;-87
2024/02/26 01:37:29;;;;;;;70.50;38.20;;;;;;;1.96;100.00;99540.42;214468;1288;140874;-87
2024/02/26 01:42:32;;;;;;;74.40;39.80;;;;;;;1.97;100.00;99543.02;216770;1290;97946;-87
2024/02/26 01:47:32;;;;;;;77.80;43.20;;;;;;;1.94;100.00;99539.67;214250;1285;140785;-87
2024/02/26 01:52:33;;;;;;;68.90;38.50;;;;;;;1.92;100.00;99540.23;214872;1286;138827;-87
2024/02/26 01:57:34;;;;;;;67.10;38.20;;;;;;;1.89;100.00;99538.96;214208;1286;140284;-88
2024/02/26 02:02:34;;;;;;;67.30;37.90;;;;;;;1.84;100.00;99542.69;214627;1288;138937;-87
2024/02/26 02:07:35;;;;;;;69.00;37.70;;;;;;;1.81;100.00;99546.46;214262;1285;140522;-87
2024/02/26 02:12:38;;;;;;;78.70;39.70;;;;;;;1.73;100.00;99550.08;214758;1287;98066;-87
2024/02/26 02:17:39;;;;;;;97.40;45.40;;;;;;;1.64;100.00;99547.64;214355;1285;140988;-87
2024/02/26 02:22:39;;;;;;;82.80;42.00;;;;;;;1.58;100.00;99545.80;214881;1285;139117;-87
2024/02/26 02:27:41;;;;;;;81.20;41.70;;;;;;;1.54;100.00;99543.89;214411;1286;140449;-88
2024/02/26 02:32:42;;;;;;;75.10;37.40;;;;;;;1.50;100.00;99541.91;214950;1287;139622;-87
2024/02/26 02:37:43;;;;;;;71.90;36.90;;;;;;;1.44;100.00;99539.92;214417;1285;142512;-86
2024/02/26 02:42:43;;;;;;;76.90;40.60;;;;;;;1.40;100.00;99539.33;216979;1285;97528;-88
2024/02/26 02:47:44;;;;;;;72.30;37.10;;;;;;;1.32;100.00;99534.34;214320;1286;139990;-88
2024/02/26 02:52:44;;;;;;;67.70;38.10;;;;;;;1.25;100.00;99533.04;214868;1286;138996;-87
2024/02/26 02:57:45;;;;;;;64.80;36.40;;;;;;;1.20;100.00;99527.20;214158;1287;140294;-87
2024/02/26 03:02:46;;;;;;;70.00;38.20;;;;;;;1.12;100.00;99514.48;214757;1288;138924;-87
2024/02/26 03:07:47;;;;;;;72.60;39.40;;;;;;;1.10;100.00;99507.75;214395;1288;141467;-87
2024/02/26 03:12:47;;;;;;;70.50;37.80;;;;;;;1.07;100.00;99512.70;215244;1285;97905;-87
2024/02/26 03:17:48;;;;;;;76.40;38.80;;;;;;;1.06;100.00;99519.06;214298;1286;140559;-87
2024/02/26 03:22:48;;;;;;;73.70;38.30;;;;;;;1.00;100.00;99517.92;214848;1286;138848;-86
2024/02/26 03:27:48;;;;;;;72.40;37.80;;;;;;;0.93;100.00;99522.04;214229;1287;140264;-88
2024/02/26 03:32:49;;;;;;;75.90;38.40;;;;;;;0.86;100.00;99518.36;214705;1290;139781;-87
2024/02/26 03:37:51;;;;;;;72.50;37.60;;;;;;;0.78;100.00;99521.58;214289;1287;140480;-88
2024/02/26 03:42:53;;;;;;;87.80;41.60;;;;;;;0.71;100.00;99524.33;215840;1284;98028;-88
2024/02/26 03:47:54;;;;;;;88.10;41.00;;;;;;;0.64;100.00;99523.32;215686;1286;140020;-88
2024/02/26 03:52:55;;;;;;;119.50;47.60;;;;;;;0.56;100.00;99524.89;214957;1286;138998;-87
2024/02/26 03:57:55;;;;;;;119.60;48.60;;;;;;;0.51;100.00;99529.59;214426;1286;141522;-88
2024/02/26 04:02:56;;;;;;;134.00;52.10;;;;;;;0.49;100.00;99530.11;214985;1286;139113;-88
2024/02/26 04:07:56;;;;;;;137.80;53.20;;;;;;;0.46;100.00;99533.20;214412;1286;140607;-87
2024/02/26 04:12:56;;;;;;;147.00;56.10;;;;;;;0.43;100.00;99535.61;215042;1286;96724;-87
2024/02/26 04:17:57;;;;;;;138.40;56.50;;;;;;;0.41;100.00;99534.08;214486;1287;140493;-88
2024/02/26 04:22:57;;;;;;;119.90;48.40;;;;;;;0.39;100.00;99535.71;214922;1288;139369;-88
2024/02/26 04:27:58;;;;;;;125.30;48.70;;;;;;;0.38;100.00;99534.54;214493;1286;140355;-88
2024/02/26 04:32:58;;;;;;;114.00;46.50;;;;;;;0.36;100.00;99540.10;214941;1284;139363;-88
2024/02/26 04:37:58;;;;;;;171.80;58.00;;;;;;;0.33;100.00;99539.27;214400;1287;140452;-87
2024/02/26 04:42:59;;;;;;;143.20;52.90;;;;;;;0.28;100.00;99544.27;215040;1288;98348;-87
2024/02/26 04:48:00;;;;;;;138.90;51.70;;;;;;;0.24;100.00;99541.02;216691;1285;140192;-88
2024/02/26 04:53:00;;;;;;;146.30;49.90;;;;;;;0.22;100.00;99543.58;215059;1288;138868;-88
2024/02/26 04:58:01;;;;;;;141.60;50.20;;;;;;;0.23;100.00;99544.92;215102;1285;140660;-88
2024/02/26 05:03:01;;;;;;;147.30;53.00;;;;;;;0.21;100.00;99541.55;216011;1285;139058;-88
2024/02/26 05:08:02;;;;;;;136.20;52.10;;;;;;;0.21;100.00;99539.99;215526;1286;140577;-88
2024/02/26 05:13:03;;;;;;;103.90;43.20;;;;;;;0.22;100.00;99542.63;216127;1286;97799;-87
2024/02/26 05:18:04;;;;;;;97.90;43.50;;;;;;;0.24;100.00;99542.73;215410;1285;140722;-88
2024/02/26 05:23:05;;;;;;;102.20;44.20;;;;;;;0.27;100.00;99538.03;215835;1285;138641;-88
2024/02/26 05:28:05;;;;;;;88.70;39.70;;;;;;;0.29;100.00;99543.56;215101;1288;140156;-87
2024/02/26 05:33:06;;;;;;;77.60;36.70;;;;;;;0.33;100.00;99547.23;215254;1286;139431;-88
2024/02/26 05:38:06;;;;;;;66.80;33.40;;;;;;;0.40;100.00;99548.59;214893;1285;140358;-87
2024/02/26 05:43:07;;;;;;;76.40;34.20;;;;;;;0.50;100.00;99553.52;215434;1285;98064;-87
2024/02/26 05:48:07;;;;;;;63.90;34.00;;;;;;;0.58;100.00;99561.88;216608;1284;139359;-88
2024/02/26 05:53:07;;;;;;;66.50;33.90;;;;;;;0.66;100.00;99575.15;215308;1285;139341;-88
2024/02/26 05:58:08;;;;;;;69.90;33.60;;;;;;;0.82;100.00;99581.55;214689;1286;140402;-88
2024/02/26 06:03:09;;;;;;;71.60;34.70;;;;;;;1.05;100.00;99574.75;215633;1285;140848;-87
2024/02/26 06:08:09;;;;;;;66.90;34.10;;;;;;;1.13;100.00;99573.95;215155;1287;141738;-87
2024/02/26 06:13:10;;;;;;;65.70;34.90;;;;;;;1.23;100.00;99574.23;215811;1285;97893;-87
2024/02/26 06:18:10;;;;;;;332.90;115.10;;;;;;;1.28;100.00;99569.08;215861;1285;141256;-88
2024/02/26 06:23:11;;;;;;;97.50;46.90;;;;;;;1.33;100.00;99571.92;216407;1285;139499;-89
2024/02/26 06:28:11;;;;;;;74.50;38.60;;;;;;;1.37;100.00;99575.70;215835;1285;140918;-88
2024/02/26 06:33:12;;;;;;;71.50;37.10;;;;;;;1.42;100.00;99578.67;216538;1284;138983;-88
2024/02/26 06:38:13;;;;;;;70.60;36.20;;;;;;;1.50;100.00;99585.04;215261;1284;141159;-86
2024/02/26 06:43:14;;;;;;;70.50;36.20;;;;;;;1.63;100.00;99582.52;215146;1288;139469;-86
2024/02/26 06:48:14;;;;;;;72.80;37.90;;;;;;;1.84;100.00;99578.42;215460;1284;140161;-86
2024/02/26 06:53:16;;;;;;;78.60;38.00;;;;;;;1.98;100.00;99576.61;216240;1285;139077;-86
2024/02/26 06:58:16;;;;;;;74.10;37.80;;;;;;;2.14;100.00;99578.02;214663;1288;140608;-86
2024/02/26 07:03:17;;;;;;;72.00;35.90;;;;;;;2.28;100.00;99580.32;215135;1285;139086;-87
2024/02/26 07:08:17;;;;;;;62.20;34.10;;;;;;;2.44;100.00;99586.30;214937;1285;140732;-86
2024/02/26 07:13:18;;;;;;;86.90;38.00;;;;;;;2.65;100.00;99589.65;215307;1285;139093;-87
2024/02/26 07:18:18;;;;;;;88.90;41.80;;;;;;;2.89;100.00;99588.09;215458;1286;140351;-87
2024/02/26 07:23:18;;;;;;;76.40;36.90;;;;;;;3.04;100.00;99596.58;215238;1285;140830;-87
2024/02/26 07:28:19;;;;;;;80.70;37.90;;;;;;;3.17;100.00;99595.13;214583;1285;140228;-87
2024/02/26 07:33:19;;;;;;;96.10;43.50;;;;;;;3.31;100.00;99592.65;215923;1284;140059;-87
2024/02/26 07:38:20;;;;;;;99.00;47.30;;;;;;;3.43;100.00;99595.84;215163;1288;140426;-88
2024/02/26 07:43:20;;;;;;;84.10;39.00;;;;;;;3.53;100.00;99597.48;216160;1285;139418;-88
2024/02/26 07:48:21;;;;;;;77.80;39.60;;;;;;;3.71;100.00;99593.59;215527;1285;141714;-87
2024/02/26 07:53:21;;;;;;;67.10;35.00;;;;;;;3.90;100.00;99589.33;216681;1283;137741;-87
2024/02/26 07:58:23;;;;;;;56.40;32.20;;;;;;;4.09;100.00;99588.68;214611;1285;140671;-87
2024/02/26 08:03:23;;;;;;;54.60;29.30;;;;;;;4.27;100.00;99597.50;215017;1287;139361;-87
2024/02/26 08:08:24;;;;;;;52.80;27.30;;;;;;;4.49;100.00;99612.09;215067;1287;140631;-86
2024/02/26 08:13:24;;;;;;;54.50;29.00;;;;;;;4.71;100.00;99618.64;215942;1287;139455;-87
2024/02/26 08:18:25;;;;;;;45.80;25.50;;;;;;;4.92;100.00;99622.97;215406;1285;140191;-87
2024/02/26 08:23:26;;;;;;;45.10;22.80;;;;;;;5.09;100.00;99621.91;215340;1286;139233;-86
2024/02/26 08:28:26;;;;;;;40.60;21.60;;;;;;;5.35;100.00;99625.46;214176;1286;183146;-87
2024/02/26 08:33:26;;;;;;;50.10;27.40;;;;;;;5.68;100.00;99624.81;214823;1286;139615;-87
2024/02/26 08:38:27;;;;;;;45.20;26.10;;;;;;;5.95;100.00;99619.70;214353;1285;140404;-88
2024/02/26 08:43:27;;;;;;;65.30;33.30;;;;;;;6.17;100.00;99622.47;214946;1284;139195;-87
2024/02/26 08:48:28;;;;;;;64.10;31.00;;;;;;;6.38;100.00;99615.83;214488;1284;140451;-87
2024/02/26 08:53:28;;;;;;;53.20;29.00;;;;;;;6.65;100.00;99623.31;215735;1285;138893;-87
2024/02/26 08:58:28;;;;;;;51.10;28.80;;;;;;;6.86;100.00;99627.20;214204;1286;140525;-87
2024/02/26 09:03:29;;;;;;;52.10;31.00;;;;;;;7.07;100.00;99631.84;214565;1287;139594;-87
2024/02/26 09:08:29;;;;;;;51.70;27.70;;;;;;;7.36;100.00;99636.95;213979;1286;140095;-86
2024/02/26 09:13:30;;;;;;;40.80;23.10;;;;;;;7.68;100.00;99629.45;214473;1287;139405;-88
2024/02/26 09:18:30;;;;;;;45.70;24.90;;;;;;;8.15;100.00;99632.31;214184;1286;140779;-87
2024/02/26 09:23:30;;;;;;;40.20;23.90;;;;;;;8.62;100.00;99625.60;214775;1285;138757;-88
2024/02/26 09:28:34;;;;;;;56.30;29.10;;;;;;;9.07;100.00;99630.23;214331;1285;141556;-87
2024/02/26 09:33:35;;;;;;;59.60;29.90;;;;;;;9.73;100.00;99630.20;214816;1285;138996;-88
2024/02/26 09:38:37;;;;;;;51.40;27.70;;;;;;;10.27;100.00;99627.65;214214;1285;140512;-89
2024/02/26 09:43:42;;;;;;;56.00;29.20;;;;;;;10.49;100.00;99624.73;214818;1284;139320;-88
2024/02/26 09:48:44;;;;;;;63.10;31.80;;;;;;;10.74;100.00;99623.10;214286;1286;140464;-87
2024/02/26 09:53:47;;;;;;;36.50;23.30;;;;;;;11.00;100.00;99623.73;215008;1287;139189;-87
2024/02/26 09:58:53;;;;;;;42.50;24.20;;;;;;;11.32;100.00;99621.86;214063;1287;140462;-87
2024/02/26 10:03:58;;;;;;;44.20;24.60;;;;;;;11.76;100.00;99626.36;214422;1285;139887;-88
2024/02/26 10:09:00;;;;;;;38.00;23.30;;;;;;;12.16;100.00;99627.86;213829;1287;140967;-88
2024/02/26 10:14:00;;;;;;;36.30;22.20;;;;;;;12.60;100.00;99623.93;214578;1285;139254;-88
2024/02/26 10:19:00;;;;;;;35.40;20.70;;;;;;;12.79;100.00;99621.05;214205;1286;140540;-87
2024/02/26 10:24:01;;;;;;;33.90;22.10;;;;;;;12.99;100.00;99623.70;214870;1287;138885;-88
2024/02/26 10:29:01;;;;;;;33.00;21.20;;;;;;;13.04;100.00;99620.48;214083;1288;140536;-88
2024/02/26 10:34:02;;;;;;;34.80;22.20;;;;;;;13.33;100.00;99622.41;214443;1286;139192;-89
2024/02/26 10:39:05;;;;;;;34.90;20.90;;;;;;;13.57;100.00;99628.16;214170;1285;142056;-88
2024/02/26 10:44:05;;;;;;;31.80;17.40;;;;;;;13.77;99.33;99624.25;214908;1285;139194;-88
2024/02/26 10:49:12;;;;;;;30.70;19.90;;;;;;;13.95;99.40;99625.79;215266;1284;140578;-88
2024/02/26 10:54:16;;;;;;;30.50;21.30;;;;;;;14.08;98.80;99620.04;216191;1285;106045;-89
2024/02/26 10:59:21;;;;;;;33.90;21.00;;;;;;;14.08;95.97;99621.71;215136;1285;140301;-88
2024/02/26 11:04:22;;;;;;;33.90;21.20;;;;;;;13.96;96.70;99620.31;215139;1285;139086;-88
2024/02/26 11:09:24;;;;;;;29.80;18.20;;;;;;;14.05;94.73;99614.80;214386;1285;140386;-88
2024/02/26 11:14:26;;;;;;;33.30;18.60;;;;;;;14.04;95.67;99614.33;214913;1285;141627;-88
2024/02/26 11:19:27;;;;;;;23.60;14.00;;;;;;;14.21;95.58;99612.50;214400;1285;140621;-87
2024/02/26 11:24:28;;;;;;;27.00;14.40;;;;;;;14.45;95.66;99609.48;215018;1285;112237;-87
2024/02/26 11:29:41;;;;;;;23.40;13.90;;;;;;;14.62;94.69;99613.61;214301;1285;140803;-90
2024/02/26 11:34:42;;;;;;;22.30;14.20;;;;;;;14.54;92.43;99607.44;214852;1284;139614;-88
2024/02/26 11:39:45;;;;;;;24.50;14.70;;;;;;;14.49;92.61;99606.96;214099;1285;140811;-88
2024/02/26 11:44:46;;;;;;;27.80;16.70;;;;;;;14.32;89.92;99607.42;214591;1287;139560;-87
2024/02/26 11:49:46;;;;;;;27.20;15.20;;;;;;;14.13;91.16;99602.19;214365;1288;141026;-89
2024/02/26 11:54:53;;;;;;;23.00;13.30;;;;;;;14.04;89.47;99606.43;215217;1285;99275;-87
2024/02/26 11:59:56;;;;;;;19.50;12.80;;;;;;;13.89;89.59;99602.34;215727;1285;139903;-87
2024/02/26 12:04:56;;;;;;;19.90;10.40;;;;;;;13.96;91.32;99603.41;214836;1286;140948;-88
2024/02/26 12:10:28;;;;;;;19.30;11.50;;;;;;;14.02;89.76;99603.31;214510;1285;142611;-88
2024/02/26 12:15:33;;;;;;;22.20;12.90;;;;;;;14.01;89.61;99605.30;214878;1288;139054;-88
2024/02/26 12:20:35;;;;;;;23.90;13.70;;;;;;;13.95;88.71;99604.28;214308;1285;139817;-87
2024/02/26 12:25:35;;;;;;;25.20;13.60;;;;;;;13.85;88.58;99601.45;214934;1285;139505;-89
2024/02/26 12:30:36;;;;;;;23.10;12.30;;;;;;;13.83;88.74;99599.73;214624;1285;142989;-87
2024/02/26 12:35:36;;;;;;;24.50;15.10;;;;;;;13.82;88.76;99600.85;214872;1285;138942;-87
2024/02/26 12:40:37;;;;;;;23.40;13.30;;;;;;;13.70;87.88;99608.70;214137;1287;141041;-87
2024/02/26 12:45:40;;;;;;;29.00;14.00;;;;;;;13.62;88.11;99611.34;214723;1285;139011;-87
2024/02/26 12:50:45;;;;;;;23.20;13.60;;;;;;;13.60;88.42;99615.97;213972;1286;140520;-89
2024/02/26 12:55:45;;;;;;;25.10;15.10;;;;;;;13.50;88.27;99615.47;214610;1286;139148;-87
2024/02/26 13:00:47;;;;;;;26.70;15.10;;;;;;;13.47;90.04;99615.82;216281;1285;140200;-87
2024/02/26 13:05:48;;;;;;;25.80;14.00;;;;;;;13.43;88.23;99606.80;214893;1285;138906;-87
2024/02/26 13:10:51;;;;;;;34.10;15.80;;;;;;;13.30;88.88;99610.84;214053;1285;141500;-87
2024/02/26 13:16:06;;;;;;;27.40;16.40;;;;;;;13.26;88.35;99612.78;214892;1287;139216;-86
2024/02/26 13:21:11;;;;;;;27.20;14.80;;;;;;;13.25;89.75;99620.14;214199;1285;140950;-87
2024/02/26 13:26:15;;;;;;;26.80;13.00;;;;;;;13.30;90.04;99624.50;214607;1285;139088;-86
2024/02/26 13:31:16;;;;;;;25.40;13.90;;;;;;;13.32;90.18;99622.66;214238;1287;223455;-86
2024/02/26 13:36:17;;;;;;;27.10;14.60;;;;;;;13.24;88.92;99620.77;214291;1285;140721;-86
2024/02/26 13:41:17;;;;;;;31.00;16.80;;;;;;;13.22;89.14;99622.30;214890;1285;139916;-87
2024/02/26 13:46:18;;;;;;;26.30;14.60;;;;;;;13.18;88.21;99623.95;214268;1284;140039;-87
2024/02/26 13:51:18;;;;;;;29.80;15.00;;;;;;;13.15;88.98;99624.85;214954;1288;139932;-87
2024/02/26 13:56:19;;;;;;;28.70;15.60;;;;;;;13.17;89.02;99626.09;214432;1285;140637;-87
2024/02/26 14:01:19;;;;;;;31.30;15.50;;;;;;;13.19;90.21;99628.66;216811;1290;139163;-86
2024/02/26 14:06:20;;;;;;;34.30;16.10;;;;;;;13.21;90.26;99629.04;215292;1285;140497;-85
2024/02/26 14:11:20;;;;;;;29.60;14.90;;;;;;;13.24;90.88;99632.40;215398;1284;139811;-87
2024/02/26 14:16:20;;;;;;;27.30;14.60;;;;;;;13.17;89.44;99632.41;215073;1285;142939;-87
2024/02/26 14:21:21;;;;;;;22.50;13.00;;;;;;;13.03;89.15;99634.08;215858;1284;139041;-87
2024/02/26 14:26:24;;;;;;;23.40;13.60;;;;;;;12.99;90.16;99637.52;214771;1288;140222;-87
2024/02/26 14:31:25;;;;;;;22.40;12.70;;;;;;;12.96;90.34;99639.34;214949;1287;140098;-87
2024/02/26 14:36:26;;;;;;;23.50;13.00;;;;;;;12.93;90.70;99633.44;214735;1285;141567;-87
2024/02/26 14:41:26;;;;;;;22.80;12.70;;;;;;;12.95;92.09;99635.63;215079;1284;138891;-87
2024/02/26 14:46:26;;;;;;;20.20;11.80;;;;;;;12.88;90.86;99639.02;214402;1285;140322;-86
2024/02/26 14:51:27;;;;;;;23.60;12.10;;;;;;;12.88;92.08;99637.83;214749;1285;139064;-87
2024/02/26 14:56:28;;;;;;;22.90;12.10;;;;;;;12.91;91.94;99635.04;214382;1285;141188;-86
2024/02/26 15:01:28;;;;;;;20.00;10.90;;;;;;;12.87;91.58;99638.95;216297;1285;139821;-86
2024/02/26 15:06:28;;;;;;;22.10;11.80;;;;;;;12.85;92.22;99648.61;214564;1285;140584;-86
2024/02/26 15:11:29;;;;;;;21.90;11.70;;;;;;;12.86;94.42;99646.45;214900;1284;139138;-86
2024/02/26 15:16:29;;;;;;;20.30;11.60;;;;;;;12.83;95.09;99648.06;214387;1285;140292;-86
2024/02/26 15:21:30;;;;;;;18.90;11.50;;;;;;;12.78;95.68;99653.88;214799;1285;139492;-86
2024/02/26 15:26:30;;;;;;;20.20;11.60;;;;;;;12.72;96.46;99659.86;214244;1284;141503;-87
2024/02/26 15:31:31;;;;;;;17.70;10.90;;;;;;;12.66;96.95;99663.38;214633;1284;139104;-86
2024/02/26 15:36:31;;;;;;;19.20;10.50;;;;;;;12.56;97.64;99660.80;214587;1285;140178;-86
2024/02/26 15:41:32;;;;;;;21.20;11.10;;;;;;;12.48;98.47;99661.50;214796;1285;139572;-87
2024/02/26 15:46:32;;;;;;;25.50;11.40;;;;;;;12.43;98.88;99666.67;214325;1284;141365;-86
2024/02/26 15:51:33;;;;;;;22.80;12.40;;;;;;;12.29;98.93;99672.93;214652;1285;140999;-86
2024/02/26 15:56:35;;;;;;;21.70;11.50;;;;;;;12.20;99.58;99678.52;214200;1285;139829;-86
2024/02/26 16:01:36;;;;;;;21.50;11.90;;;;;;;12.14;100.00;99679.36;215928;1284;138560;-86
2024/02/26 16:06:41;;;;;;;21.00;12.20;;;;;;;12.06;100.00;99681.23;214916;1285;141504;-86
2024/02/26 16:11:42;;;;;;;24.90;14.00;;;;;;;11.93;99.97;99682.10;215152;1285;139664;-86
2024/02/26 16:16:51;;;;;;;68.80;36.20;;;;;;;11.73;100.00;99692.54;214725;1285;140613;-86
2024/02/26 16:21:53;;;;;;;126.20;63.40;;;;;;;11.59;100.00;99693.38;215738;1284;139610;-86
2024/02/26 16:26:53;;;;;;;93.50;45.20;;;;;;;11.48;100.00;99697.04;215097;1285;140789;-87
2024/02/26 16:31:54;;;;;;;148.50;74.40;;;;;;;11.32;100.00;99702.23;215595;1285;139638;-86
2024/02/26 16:36:54;;;;;;;93.20;48.50;;;;;;;11.18;100.00;99707.22;214310;1284;141371;-87
2024/02/26 16:41:54;;;;;;;79.80;45.00;;;;;;;11.06;100.00;99718.59;214629;1285;139119;-87
2024/02/26 16:46:55;;;;;;;69.50;43.10;;;;;;;10.97;100.00;99722.14;214260;1285;140980;-87
2024/02/26 16:51:56;;;;;;;32.30;21.00;;;;;;;10.88;100.00;99729.00;214675;1284;139799;-87
2024/02/26 16:56:56;;;;;;;29.30;15.60;;;;;;;10.79;100.00;99734.84;214519;1285;140840;-89
2024/02/26 17:01:58;;;;;;;29.20;15.00;;;;;;;10.67;100.00;99732.23;215310;1284;139453;-89
2024/02/26 17:07:03;;;;;;;22.20;13.70;;;;;;;10.59;100.00;99732.80;215809;1287;142778;-89
2024/02/26 17:12:04;;;;;;;25.00;13.60;;;;;;;10.48;100.00;99733.11;214439;1287;139918;-89
2024/02/26 17:17:04;;;;;;;29.00;15.60;;;;;;;10.39;100.00;99735.31;214010;1287;140984;-89
2024/02/26 17:22:07;;;;;;;33.70;18.10;;;;;;;10.31;100.00;99738.61;214511;1285;139621;-89
2024/02/26 17:27:07;;;;;;;35.90;18.20;;;;;;;10.26;100.00;99743.95;214391;1285;141350;-88
2024/02/26 17:32:07;;;;;;;36.90;18.80;;;;;;;10.21;100.00;99750.93;214531;1285;140742;-89
2024/02/26 17:37:08;;;;;;;35.10;20.20;;;;;;;10.17;100.00;99753.36;214345;1285;140836;-89
2024/02/26 17:42:08;;;;;;;31.50;18.60;;;;;;;10.14;100.00;99744.00;214807;1285;139448;-88
2024/02/26 17:47:09;;;;;;;31.90;16.80;;;;;;;10.07;100.00;99740.77;214218;1288;140352;-87
2024/02/26 17:52:09;;;;;;;36.70;20.10;;;;;;;10.05;100.00;99741.31;214908;1286;139502;-88
2024/02/26 17:57:09;;;;;;;31.40;18.30;;;;;;;9.98;100.00;99745.36;214321;1284;141945;-87
2024/02/26 18:02:10;;;;;;;35.00;19.20;;;;;;;9.93;100.00;99749.11;214952;1285;140661;-88
2024/02/26 18:07:13;;;;;;;36.60;18.60;;;;;;;9.88;100.00;99751.20;215875;1288;140893;-87
2024/02/26 18:12:13;;;;;;;31.00;17.40;;;;;;;9.85;100.00;99743.90;214775;1288;140405;-87
2024/02/26 18:17:14;;;;;;;29.50;16.50;;;;;;;9.82;100.00;99749.85;214235;1285;141124;-88
2024/02/26 18:22:15;;;;;;;27.80;14.30;;;;;;;9.81;100.00;99755.11;215030;1285;139947;-89
2024/02/26 18:27:15;;;;;;;30.70;15.10;;;;;;;9.80;100.00;99765.88;215261;1286;140476;-88
2024/02/26 18:32:16;;;;;;;28.60;16.10;;;;;;;9.80;100.00;99771.67;215842;1286;139192;-87
2024/02/26 18:37:16;;;;;;;31.60;17.70;;;;;;;9.82;100.00;99779.00;215295;1288;140866;-85
2024/02/26 18:42:18;;;;;;;27.70;16.00;;;;;;;9.84;100.00;99781.91;215776;1288;99305;-87
2024/02/26 18:47:20;;;;;;;29.90;17.60;;;;;;;9.86;100.00;99793.99;214135;1287;140327;-88
2024/02/26 18:52:21;;;;;;;43.10;22.30;;;;;;;9.85;100.00;99798.08;214448;1287;139563;-87
2024/02/26 18:57:23;;;;;;;37.30;19.70;;;;;;;9.80;100.00;99804.64;214037;1288;140344;-87
2024/02/26 19:02:24;;;;;;;44.60;23.00;;;;;;;9.74;100.00;99813.90;215244;1285;140185;-87
2024/02/26 19:07:25;;;;;;;46.50;24.10;;;;;;;9.70;100.00;99817.02;215841;1285;140696;-87
2024/02/26 19:12:25;;;;;;;33.30;18.50;;;;;;;9.63;100.00;99813.29;215278;1285;98070;-87
2024/02/26 19:17:26;;;;;;;32.70;20.30;;;;;;;9.56;100.00;99808.63;214466;1285;140173;-86
2024/02/26 19:22:26;;;;;;;35.40;21.30;;;;;;;9.53;100.00;99811.35;214797;1288;138854;-87
2024/02/26 19:27:27;;;;;;;39.60;20.60;;;;;;;9.49;100.00;99807.10;214124;1287;140519;-88
2024/02/26 19:32:27;;;;;;;39.40;21.70;;;;;;;9.46;100.00;99805.52;214456;1288;138831;-88
2024/02/26 19:37:27;;;;;;;40.90;23.10;;;;;;;9.44;100.00;99816.16;213985;1290;140281;-87
2024/02/26 19:42:28;;;;;;;50.90;26.70;;;;;;;9.44;100.00;99822.23;215046;1285;97964;-86
2024/02/26 19:47:28;;;;;;;77.10;36.00;;;;;;;9.43;100.00;99824.95;214420;1284;140712;-88
2024/02/26 19:52:29;;;;;;;53.80;26.70;;;;;;;9.41;100.00;99819.84;214878;1285;138926;-87
2024/02/26 19:57:29;;;;;;;44.10;24.70;;;;;;;9.35;100.00;99815.66;214516;1285;141063;-87
2024/02/26 20:02:30;;;;;;;49.70;26.20;;;;;;;9.32;100.00;99815.47;215227;1288;139248;-88
2024/02/26 20:07:30;;;;;;;40.80;24.60;;;;;;;9.31;100.00;99825.73;216254;1287;140684;-89
2024/02/26 20:12:31;;;;;;;48.90;24.10;;;;;;;9.29;100.00;99829.66;214996;1290;98357;-87
2024/02/26 20:17:31;;;;;;;43.90;24.70;;;;;;;9.28;100.00;99835.69;214408;1286;139861;-87
2024/02/26 20:22:32;;;;;;;61.30;29.80;;;;;;;9.30;100.00;99850.30;214921;1287;139195;-90
2024/02/26 20:27:32;;;;;;;43.70;24.70;;;;;;;9.28;100.00;99862.36;214440;1288;158416;-86
2024/02/26 20:32:34;;;;;;;43.30;23.90;;;;;;;8.99;100.00;99842.77;215092;1288;139344;-85
2024/02/26 20:37:34;;;;;;;45.20;25.30;;;;;;;8.84;100.00;99843.43;214648;1286;140486;-93
2024/02/26 20:42:35;;;;;;;47.70;26.10;;;;;;;8.79;100.00;99833.20;215100;1291;98740;-92
2024/02/26 20:47:35;;;;;;;43.40;23.20;;;;;;;8.79;100.00;99830.05;214399;1292;139465;-90
2024/02/26 20:52:36;;;;;;;44.70;25.50;;;;;;;8.81;100.00;99829.59;215038;1288;139322;-90
2024/02/26 20:57:36;;;;;;;44.40;26.10;;;;;;;8.81;100.00;99821.91;215239;1288;139852;-90
2024/02/26 21:02:37;;;;;;;45.30;24.20;;;;;;;8.75;100.00;99821.02;215048;1286;138899;-88
2024/02/26 21:07:37;;;;;;;40.80;23.70;;;;;;;8.71;100.00;99818.23;214709;1284;141058;-89
2024/02/26 21:12:38;;;;;;;43.90;23.40;;;;;;;8.67;100.00;99821.49;215305;1288;97969;-90
2024/02/26 21:17:38;;;;;;;44.70;24.30;;;;;;;8.62;100.00;99827.24;214684;1288;140199;-88
2024/02/26 21:22:38;;;;;;;47.70;25.90;;;;;;;8.56;100.00;99837.45;214899;1288;140023;-88
2024/02/26 21:27:39;;;;;;;50.50;26.20;;;;;;;8.54;100.00;99844.48;214293;1287;140754;-88
2024/02/26 21:32:39;;;;;;;50.90;27.40;;;;;;;8.51;100.00;99851.90;214667;1287;139332;-86
2024/02/26 21:37:39;;;;;;;45.60;25.70;;;;;;;8.47;100.00;99856.33;214634;1285;140359;-86
2024/02/26 21:42:43;;;;;;;46.90;24.70;;;;;;;8.44;100.00;99856.36;214978;1285;98047;-87
2024/02/26 21:47:43;;;;;;;51.30;27.10;;;;;;;8.39;100.00;99855.38;214328;1288;140009;-89
2024/02/26 21:52:43;;;;;;;42.90;25.10;;;;;;;8.35;100.00;99853.23;214591;1287;139054;-86
2024/02/26 21:57:44;;;;;;;46.50;26.10;;;;;;;8.33;100.00;99857.98;214202;1286;140436;-88
2024/02/26 22:02:44;;;;;;;40.30;24.00;;;;;;;8.28;100.00;99855.43;214625;1290;138894;-86
2024/02/26 22:07:45;;;;;;;54.40;25.40;;;;;;;8.24;100.00;99857.10;214308;1285;140890;-87
2024/02/26 22:12:46;;;;;;;47.20;26.00;;;;;;;8.21;100.00;99857.38;214823;1286;97932;-86
2024/02/26 22:17:46;;;;;;;46.80;24.40;;;;;;;8.19;100.00;99856.94;214468;1292;140260;-86
2024/02/26 22:22:47;;;;;;;45.20;25.70;;;;;;;8.16;100.00;99853.92;214963;1286;139174;-85
2024/02/26 22:27:47;;;;;;;46.90;25.20;;;;;;;8.15;100.00;99854.84;214718;1288;140871;-85